Altoona, WI

12:10 AM CDT on August 27, 2016 (GMT -0500)
Lake Altoona County Park | | Change Station

Elev 853 ft 44.81 °N, 91.42 °W | Updated 3 seconds ago

Mostly Cloudy
Mostly Cloudy
60.9 °F
Feels Like 60.9 °F
N
0.0
Wind Variable Wind from NE
Gusts 0.0 mph

Today
High -- | Low -- °F
--% Chance of Precip.
Yesterday
High -- | Low -- °F
Precip. -- in
Pressure 30.13 in
Visibility 10.0 miles
Clouds Mostly Cloudy 12000 ft
Dew Point 57 °F
Humidity 87%
Rainfall 0.00 in
Snow Depth Not available.
6:22 AM 7:50 PM
Waning Crescent, 28% visible
METAR KEAU 270456Z AUTO 00000KT 10SM BKN120 16/15 A3013 RMK AO2 SLP201 T01560150
Pressure 30.13 in
Visibility 10.0 miles
Clouds Mostly Cloudy 12000 ft
Dew Point 57 °F
Humidity 87%
Rainfall 0.00 in
Snow Depth Not available.
6:22 AM 7:50 PM
Waning Crescent, 28% visible
METAR KEAU 270456Z AUTO 00000KT 10SM BKN120 16/15 A3013 RMK AO2 SLP201 T01560150

10-Day Weather Forecast

Almanac

Astronomy

Aug. 27, 2016 Rise Set
Actual Time
Civil Twilight
Nautical Twilight
Astronomical Twilight
Moon
Length of Visible Light
Length of Day
Tomorrow will be .
, % of the Moon is Illuminated

Today's Extremes

State Highs State Lows

Community

WunderPhotos

Upload Photos

1,935,301 photos uploaded!

WunderBlog® & News

Nearby

Air Quality

  Air Quality AQ Index Pollutant
Not available.

Snow Depth

Station Depth Elevation

Earthquake Activity

City Distance Mag. Time & Date
Minimum magnitude displayed is 2.5.

Coastal Water Temperatures

Place Temperature

Stations

Nearby Weather Stations

Station Location Temp. Windchill Dew Point Humidity Wind Precip. Elev Updated Type
                   

Watches & Warnings

There are currently no watches in effect.